createdAt,value
2023-11-24T00:04:08.054Z,3.88
2023-11-24T00:09:11.739Z,4.45
2023-11-24T00:14:15.084Z,4.65
2023-11-24T00:19:20.649Z,4.25
2023-11-24T00:24:24.678Z,4.70
2023-11-24T00:29:28.397Z,4.60
2023-11-24T00:34:33.170Z,4.63
2023-11-24T00:39:37.202Z,5.13
2023-11-24T00:44:40.446Z,28.30
2023-11-24T00:49:45.089Z,6.25
2023-11-24T00:54:48.422Z,5.63
2023-11-24T00:59:52.330Z,6.50
2023-11-24T01:04:57.297Z,5.38
2023-11-24T01:10:00.732Z,10.80
2023-11-24T01:15:04.063Z,7.35
2023-11-24T01:20:11.990Z,12.88
2023-11-24T01:25:15.396Z,5.72
2023-11-24T01:30:18.647Z,12.38
2023-11-24T01:35:23.292Z,12.95
2023-11-24T01:40:26.784Z,6.43
2023-11-24T01:45:30.367Z,6.57
2023-11-24T01:50:35.068Z,15.25
2023-11-24T01:55:38.513Z,28.48
2023-11-24T02:00:42.689Z,22.98
2023-11-24T02:05:47.565Z,33.80
2023-11-24T02:10:50.847Z,6.57
2023-11-24T02:15:57.443Z,21.95
2023-11-24T02:21:04.009Z,27.77
2023-11-24T02:26:10.455Z,19.48
2023-11-24T02:31:13.812Z,15.68
2023-11-24T02:36:22.484Z,29.45
2023-11-24T02:41:28.350Z,18.10
2023-11-24T02:46:31.661Z,36.53
2023-11-24T02:51:34.974Z,41.70
2023-11-24T02:56:39.804Z,20.92
2023-11-24T03:01:43.690Z,47.42
2023-11-24T03:06:47.134Z,20.88
2023-11-24T03:11:52.599Z,24.08
2023-11-24T03:16:56.039Z,25.58
2023-11-24T03:21:59.758Z,23.65
2023-11-24T03:27:04.813Z,19.98
2023-11-24T03:32:08.186Z,11.48
2023-11-24T03:37:11.562Z,58.83
2023-11-24T03:42:16.283Z,28.05
2023-11-24T03:47:20.062Z,59.38
2023-11-24T03:52:24.467Z,30.73
2023-11-24T03:57:29.150Z,29.23
2023-11-24T04:02:32.403Z,9.13
2023-11-24T04:07:36.057Z,39.40
2023-11-24T04:12:40.767Z,52.08
2023-11-24T04:17:44.195Z,48.28
2023-11-24T04:22:47.933Z,65.60
2023-11-24T04:27:52.629Z,58.38
2023-11-24T04:32:56.320Z,69.75
2023-11-24T04:37:59.615Z,32.60
2023-11-24T04:43:04.621Z,47.55
2023-11-24T04:48:09.572Z,75.10
2023-11-24T04:53:13.233Z,65.97
2023-11-24T04:58:17.858Z,69.00
2023-11-24T05:03:21.091Z,68.53
2023-11-24T05:08:24.371Z,64.80
2023-11-24T05:13:28.949Z,64.75
2023-11-24T05:18:32.167Z,57.20
2023-11-24T05:23:35.617Z,51.88
2023-11-24T05:28:40.338Z,17.33
2023-11-24T05:33:43.795Z,26.60
2023-11-24T05:38:47.244Z,11.43
2023-11-24T05:43:52.355Z,11.32
2023-11-24T05:48:55.595Z,11.65
2023-11-24T05:53:58.797Z,15.35
2023-11-24T05:59:03.387Z,9.15
2023-11-24T06:04:07.134Z,7.10
2023-11-24T06:09:10.676Z,9.55
2023-11-24T06:14:15.393Z,11.20
2023-11-24T06:19:18.683Z,12.90
2023-11-24T06:24:22.066Z,9.05
2023-11-24T06:29:26.965Z,10.73
2023-11-24T06:34:30.314Z,7.68
2023-11-24T06:39:33.560Z,9.35
2023-11-24T06:44:38.222Z,4.60
2023-11-24T06:49:41.451Z,7.13
2023-11-24T06:54:44.750Z,5.40
2023-11-24T06:59:49.403Z,5.93
2023-11-24T07:04:54.653Z,7.33
2023-11-24T07:09:58.092Z,10.45
2023-11-24T07:15:04.883Z,4.00
2023-11-24T07:20:12.854Z,8.18
2023-11-24T07:25:16.668Z,9.30
2023-11-24T07:30:24.120Z,8.55
2023-11-24T07:35:27.887Z,4.25
2023-11-24T07:40:31.792Z,6.18
2023-11-24T07:45:37.183Z,8.27
2023-11-24T07:50:40.437Z,10.73
2023-11-24T07:55:44.193Z,9.77
2023-11-24T08:00:48.824Z,2.75
2023-11-24T08:05:53.870Z,2.53
2023-11-24T08:10:58.090Z,2.42
2023-11-24T08:16:03.569Z,7.10
2023-11-24T08:21:07.265Z,13.27
2023-11-24T08:26:14.078Z,13.15
2023-11-24T08:31:20.902Z,6.78
2023-11-24T08:36:26.912Z,8.80
2023-11-24T08:41:35.589Z,4.35
2023-11-24T08:46:45.711Z,4.00
2023-11-24T08:56:52.528Z,3.13
2023-11-24T09:01:57.887Z,8.60
2023-11-24T09:07:01.825Z,7.72
2023-11-24T09:12:06.984Z,7.03
2023-11-24T09:22:17.600Z,6.65
2023-11-24T09:27:23.036Z,4.00
2023-11-24T09:32:27.783Z,3.47
2023-11-24T09:37:31.164Z,5.47
2023-11-24T09:42:41.557Z,8.73
2023-11-24T09:47:50.966Z,2.90
2023-11-24T09:52:57.165Z,2.20
2023-11-24T09:58:00.496Z,1.90
2023-11-24T10:03:09.184Z,2.15
2023-11-24T10:08:13.719Z,2.08
2023-11-24T10:13:17.224Z,1.90
2023-11-24T10:18:22.628Z,2.15
2023-11-24T10:23:30.089Z,1.63
2023-11-24T10:28:33.312Z,2.65
2023-11-24T10:33:38.206Z,2.08
2023-11-24T10:38:43.238Z,2.58
2023-11-24T10:43:51.056Z,1.92
2023-11-24T10:49:03.405Z,2.20
2023-11-24T10:54:10.324Z,1.98
2023-11-24T10:59:16.528Z,2.10
2023-11-24T11:04:23.877Z,2.20
2023-11-24T11:09:31.540Z,1.83
2023-11-24T11:14:35.112Z,1.90
2023-11-24T11:19:40.534Z,1.85
2023-11-24T11:24:43.968Z,2.20
2023-11-24T11:29:47.593Z,2.03
2023-11-24T11:34:53.164Z,2.55
2023-11-24T11:39:59.233Z,2.97
2023-11-24T11:45:11.640Z,2.53
2023-11-24T11:50:21.994Z,1.95
2023-11-24T11:55:27.001Z,1.70
2023-11-24T12:05:36.168Z,1.92
2023-11-24T12:10:40.270Z,1.42
2023-11-24T12:15:44.907Z,1.87
2023-11-24T12:20:51.911Z,1.67
2023-11-24T12:25:56.335Z,1.90
2023-11-24T12:31:00.439Z,2.25
2023-11-24T12:36:06.795Z,1.30
2023-11-24T12:41:11.668Z,1.38
2023-11-24T12:46:22.345Z,1.48
2023-11-24T12:51:27.521Z,1.42
2023-11-24T12:56:30.938Z,2.05
2023-11-24T13:01:34.668Z,4.57
2023-11-24T13:06:39.737Z,3.17
2023-11-24T13:11:43.507Z,1.30
2023-11-24T13:16:47.195Z,1.48
2023-11-24T13:21:54.912Z,1.23
2023-11-24T13:27:01.178Z,1.23
2023-11-24T13:32:09.030Z,1.52
2023-11-24T13:37:13.731Z,1.05
2023-11-24T13:42:18.049Z,1.20
2023-11-24T13:47:21.304Z,1.50
2023-11-24T13:52:28.321Z,1.50
2023-11-24T13:57:31.573Z,1.33
2023-11-24T14:02:37.670Z,1.40
2023-11-24T14:07:46.245Z,1.55
2023-11-24T14:12:50.020Z,1.35
2023-11-24T14:17:53.493Z,1.40
2023-11-24T14:22:58.191Z,1.45
2023-11-24T14:33:05.881Z,1.77
2023-11-24T14:38:10.762Z,1.67
2023-11-24T14:43:16.691Z,2.13
2023-11-24T14:48:20.075Z,2.35
2023-11-24T14:53:25.215Z,1.70
2023-11-24T14:58:29.011Z,1.73
2023-11-24T15:03:38.425Z,2.90
2023-11-24T15:08:50.188Z,2.97
2023-11-24T15:13:54.453Z,2.38
2023-11-24T15:24:06.026Z,2.67
2023-11-24T15:29:11.256Z,2.55
2023-11-24T15:34:15.370Z,2.60
2023-11-24T15:39:36.122Z,2.88
2023-11-24T15:44:40.297Z,2.53
2023-11-24T15:49:44.031Z,2.90
2023-11-24T15:54:49.582Z,4.10
2023-11-24T15:59:53.267Z,4.85
2023-11-24T16:04:58.265Z,5.40
2023-11-24T16:10:15.848Z,5.50
2023-11-24T16:15:19.502Z,6.00
2023-11-24T16:20:23.975Z,6.57
2023-11-24T16:25:28.834Z,7.13
2023-11-24T16:30:32.681Z,17.77
2023-11-24T16:35:36.350Z,9.60
2023-11-24T16:40:41.238Z,9.68
2023-11-24T16:45:44.696Z,11.15
2023-11-24T16:50:48.974Z,10.95
2023-11-24T16:55:53.794Z,18.90
2023-11-24T17:00:57.186Z,35.78
2023-11-24T17:06:00.634Z,18.55
2023-11-24T17:11:07.519Z,16.02
2023-11-24T17:16:12.799Z,15.07
2023-11-24T17:21:16.267Z,17.58
2023-11-24T17:26:21.141Z,24.23
2023-11-24T17:31:25.740Z,26.80
2023-11-24T17:36:30.007Z,27.30
2023-11-24T17:41:35.198Z,21.10
2023-11-24T17:46:39.990Z,20.55
2023-11-24T17:51:44.028Z,25.40
2023-11-24T17:56:50.413Z,25.02
2023-11-24T18:01:53.975Z,19.10
2023-11-24T18:06:57.518Z,20.42
2023-11-24T18:12:02.476Z,22.15
2023-11-24T18:17:07.345Z,20.92
2023-11-24T18:22:10.900Z,20.30
2023-11-24T18:27:15.804Z,19.30
2023-11-24T18:32:19.381Z,17.80
2023-11-24T18:37:22.908Z,16.50
2023-11-24T18:42:27.781Z,16.23
2023-11-24T18:47:31.877Z,16.67
2023-11-24T18:52:36.088Z,16.27
2023-11-24T18:57:44.335Z,15.68
2023-11-24T19:02:48.975Z,16.20
2023-11-24T19:07:52.910Z,14.07
2023-11-24T19:12:58.358Z,15.35
2023-11-24T19:18:02.300Z,14.73
2023-11-24T19:23:05.944Z,17.00
2023-11-24T19:28:12.407Z,16.50
2023-11-24T19:33:15.882Z,18.15
2023-11-24T19:38:19.245Z,17.17
2023-11-24T19:43:24.297Z,15.68
2023-11-24T19:53:34.023Z,18.48
2023-11-24T19:58:38.903Z,15.05
2023-11-24T20:03:42.369Z,13.05
2023-11-24T20:08:46.448Z,14.90
2023-11-24T20:13:51.359Z,14.18
2023-11-24T20:18:55.233Z,13.20
2023-11-24T20:23:58.745Z,13.55
2023-11-24T20:29:04.320Z,12.98
2023-11-24T20:34:08.978Z,13.40
2023-11-24T20:39:14.862Z,13.32
2023-11-24T20:44:20.556Z,13.32
2023-11-24T20:49:25.210Z,12.32
2023-11-24T20:54:28.805Z,12.85
2023-11-24T20:59:35.488Z,12.35
2023-11-24T21:04:39.125Z,12.93
2023-11-24T21:09:42.928Z,13.18
2023-11-24T21:14:47.904Z,11.30
2023-11-24T21:19:52.741Z,12.30
2023-11-24T21:24:57.160Z,12.50
2023-11-24T21:30:02.044Z,11.47
2023-11-24T21:35:06.035Z,11.65
2023-11-24T21:40:14.359Z,11.45
2023-11-24T21:45:19.596Z,10.60
2023-11-24T21:55:27.131Z,10.00
2023-11-24T22:00:32.086Z,9.77
2023-11-24T22:05:36.109Z,10.48
2023-11-24T22:10:39.594Z,10.60
2023-11-24T22:15:48.999Z,10.85
2023-11-24T22:20:53.058Z,10.57
2023-11-24T22:25:56.907Z,10.80
2023-11-24T22:31:01.868Z,10.55
2023-11-24T22:36:05.627Z,10.90
2023-11-24T22:41:09.252Z,10.60
2023-11-24T22:46:20.996Z,10.43
2023-11-24T22:51:25.562Z,9.88
2023-11-24T22:56:29.507Z,9.93
2023-11-24T23:01:34.822Z,8.93
2023-11-24T23:06:39.009Z,10.05
2023-11-24T23:11:42.394Z,10.00
2023-11-24T23:16:47.327Z,10.77
2023-11-24T23:21:50.743Z,9.32
2023-11-24T23:26:54.702Z,9.90
2023-11-24T23:32:00.107Z,10.23
2023-11-24T23:37:04.767Z,9.98
2023-11-24T23:42:08.376Z,9.45
2023-11-24T23:47:13.296Z,9.02
2023-11-24T23:52:16.891Z,9.45
2023-11-24T23:57:21.294Z,9.00
